PWSweather.com
Personal Weather Stations
Station Observations
UWIDEPER1
Brown County, Depere, WI 54115

Brown CountyDepere, WI 54115

Lat: 44.44, Lon: -88.05

Elevation: 610

Station Type: Acurite 5in1

Latest ConditionsUpdated 1:15:02 PM CDT Tuesday, Sep 18, 2018
Currently Today's Max Today's Min Today's Average
Temperature 62.4°F16.9°C 62.4°F16.9°C 55.9°F13.3°C 58.8°F14.9°C
Dew Point 58.1°F14.5°C 58.7°F14.8°C 53.9°F12.2°C 56.1°F13.4°C
Winds 2.3 mph NE3.7 kmh NE 3.5 mph -5.6 kmh - - 1.8 mph 2.9 kmh
Wind Gusts 2.3 mph3.7 kmh 5.8 mph9.3 kmh - -
Humidity 86% 95% 86% 91%
Pressure 29.95 in1014.2 mb 29.98 in1015.2 mb 29.91 in1012.9 mb -
Hour Temp Dew Point Humidity Winds Wind Gusts Pressure Precip Precip Rate Daily Precip Total
01:15 PM 62.4°F16.9°C 58.1°F14.5°C 86% 2.3 mph NE3.7 kmh NE 2.3 mph3.7 kmh 29.95 in1014.2 mb - 0.00 in0.0 mm 0.00 in0.0 mm
01:10 PM 62.1°F16.7°C 57.8°F14.3°C 86% 2.3 mph NE3.7 kmh NE 3.5 mph5.6 kmh 29.95 in1014.2 mb - 0.00 in0.0 mm 0.00 in0.0 mm
01:00 PM 61.8°F16.6°C 57.6°F14.2°C 86% 2.3 mph SE3.7 kmh SE 3.5 mph5.6 kmh 29.98 in1015.2 mb - 0.00 in0.0 mm 0.00 in0.0 mm
12:55 PM 62.0°F16.7°C 57.7°F14.3°C 86% 2.3 mph SE3.7 kmh SE 3.5 mph5.6 kmh 29.98 in1015.2 mb - 0.00 in0.0 mm 0.00 in0.0 mm
12:50 PM 61.9°F16.6°C 57.6°F14.2°C 86% 2.3 mph NW3.7 kmh NW 3.5 mph5.6 kmh 29.98 in1015.2 mb - 0.00 in0.0 mm 0.00 in0.0 mm
12:45 PM 61.9°F16.6°C 57.6°F14.2°C 86% 2.3 mph NNW3.7 kmh NNW 2.3 mph3.7 kmh 29.98 in1015.2 mb - 0.00 in0.0 mm 0.00 in0.0 mm
12:40 PM 62.4°F16.9°C 58.2°F14.6°C 86% 2.3 mph N3.7 kmh N 2.3 mph3.7 kmh 29.98 in1015.2 mb - 0.00 in0.0 mm 0.00 in0.0 mm
12:35 PM 62.1°F16.7°C 58.2°F14.6°C 87% 2.3 mph W3.7 kmh W 2.3 mph3.7 kmh 29.98 in1015.2 mb - 0.00 in0.0 mm 0.00 in0.0 mm
12:30 PM 62.1°F16.7°C 58.5°F14.7°C 88% 2.3 mph E3.7 kmh E 2.3 mph3.7 kmh 29.98 in1015.2 mb - 0.00 in0.0 mm 0.00 in0.0 mm
12:25 PM 61.9°F16.6°C 58.3°F14.6°C 88% 1.2 mph NE1.9 kmh NE 3.5 mph5.6 kmh 29.98 in1015.2 mb - 0.00 in0.0 mm 0.00 in0.0 mm
12:20 PM 61.6°F16.4°C 58.0°F14.4°C 88% 2.3 mph N3.7 kmh N 3.5 mph5.6 kmh 29.98 in1015.2 mb - 0.00 in0.0 mm 0.00 in0.0 mm
12:15 PM 61.9°F16.6°C 58.3°F14.6°C 88% 2.3 mph NE3.7 kmh NE 2.3 mph3.7 kmh 29.98 in1015.2 mb - 0.00 in0.0 mm 0.00 in0.0 mm
12:10 PM 61.8°F16.6°C 57.6°F14.2°C 86% 2.3 mph W3.7 kmh W 2.3 mph3.7 kmh 29.98 in1015.2 mb - 0.00 in0.0 mm 0.00 in0.0 mm
12:00 PM 62.4°F16.9°C 58.2°F14.6°C 86% 3.5 mph NW5.6 kmh NW 4.6 mph7.4 kmh 29.98 in1015.2 mb - 0.00 in0.0 mm 0.00 in0.0 mm
11:55 AM 62.4°F16.9°C 58.2°F14.6°C 86% 1.2 mph NNW1.9 kmh NNW 3.5 mph5.6 kmh 29.98 in1015.2 mb - 0.00 in0.0 mm 0.00 in0.0 mm
11:50 AM 62.4°F16.9°C 58.2°F14.6°C 86% Calm Calm 2.3 mph3.7 kmh 29.98 in1015.2 mb - 0.00 in0.0 mm 0.00 in0.0 mm
11:45 AM 62.4°F16.9°C 58.5°F14.7°C 87% 1.2 mph E1.9 kmh E 1.2 mph1.9 kmh 29.98 in1015.2 mb - 0.00 in0.0 mm 0.00 in0.0 mm
11:40 AM 61.9°F16.6°C 57.6°F14.2°C 86% 1.2 mph NNW1.9 kmh NNW 2.3 mph3.7 kmh 29.98 in1015.2 mb - 0.00 in0.0 mm 0.00 in0.0 mm
11:35 AM 62.1°F16.7°C 57.8°F14.3°C 86% 2.3 mph NW3.7 kmh NW 2.3 mph3.7 kmh 29.98 in1015.2 mb - 0.00 in0.0 mm 0.00 in0.0 mm
11:30 AM 62.2°F16.8°C 58.6°F14.8°C 88% 1.2 mph WNW1.9 kmh WNW 2.3 mph3.7 kmh 29.98 in1015.2 mb - 0.00 in0.0 mm 0.00 in0.0 mm
11:25 AM 61.9°F16.6°C 57.6°F14.2°C 86% 2.3 mph NW3.7 kmh NW 4.6 mph7.4 kmh 29.98 in1015.2 mb - 0.00 in0.0 mm 0.00 in0.0 mm
11:20 AM 61.9°F16.6°C 58.3°F14.6°C 88% 1.2 mph NE1.9 kmh NE 1.2 mph1.9 kmh 29.98 in1015.2 mb - 0.00 in0.0 mm 0.00 in0.0 mm
11:15 AM 61.2°F16.2°C 57.6°F14.2°C 88% 2.3 mph E3.7 kmh E 2.3 mph3.7 kmh 29.98 in1015.2 mb - 0.00 in0.0 mm 0.00 in0.0 mm
11:10 AM 61.3°F16.3°C 57.8°F14.3°C 88% 2.3 mph E3.7 kmh E 3.5 mph5.6 kmh 29.98 in1015.2 mb - 0.00 in0.0 mm 0.00 in0.0 mm
11:00 AM 61.5°F16.4°C 57.3°F14.1°C 86% 3.5 mph WNW5.6 kmh WNW 3.5 mph5.6 kmh 29.98 in1015.2 mb - 0.00 in0.0 mm 0.00 in0.0 mm
10:55 AM 61.9°F16.6°C 57.6°F14.2°C 86% 3.5 mph W5.6 kmh W 3.5 mph5.6 kmh 29.98 in1015.2 mb - 0.00 in0.0 mm 0.00 in0.0 mm
10:50 AM 61.3°F16.3°C 57.1°F13.9°C 86% 3.5 mph N5.6 kmh N 3.5 mph5.6 kmh 29.98 in1015.2 mb - 0.00 in0.0 mm 0.00 in0.0 mm
10:45 AM 61.5°F16.4°C 57.3°F14.1°C 86% 2.3 mph N3.7 kmh N 3.5 mph5.6 kmh 29.98 in1015.2 mb - 0.00 in0.0 mm 0.00 in0.0 mm
10:40 AM 61.7°F16.5°C 57.5°F14.2°C 86% 2.3 mph NNE3.7 kmh NNE 3.5 mph5.6 kmh 29.98 in1015.2 mb - 0.00 in0.0 mm 0.00 in0.0 mm
10:35 AM 61.9°F16.6°C 57.6°F14.2°C 86% 2.3 mph N3.7 kmh N 3.5 mph5.6 kmh 29.98 in1015.2 mb - 0.00 in0.0 mm 0.00 in0.0 mm
10:30 AM 61.9°F16.6°C 58.0°F14.4°C 87% 1.2 mph NNE1.9 kmh NNE 2.3 mph3.7 kmh 29.97 in1014.9 mb - 0.00 in0.0 mm 0.00 in0.0 mm
10:25 AM 61.9°F16.6°C 58.3°F14.6°C 88% 1.2 mph NE1.9 kmh NE 2.3 mph3.7 kmh 29.97 in1014.9 mb - 0.00 in0.0 mm 0.00 in0.0 mm
10:20 AM 61.2°F16.2°C 57.6°F14.2°C 88% 2.3 mph NW3.7 kmh NW 3.5 mph5.6 kmh 29.97 in1014.9 mb - 0.00 in0.0 mm 0.00 in0.0 mm
10:15 AM 61.2°F16.2°C 57.6°F14.2°C 88% 2.3 mph NE3.7 kmh NE 2.3 mph3.7 kmh 29.98 in1015.2 mb - 0.00 in0.0 mm 0.00 in0.0 mm
10:10 AM 61.3°F16.3°C 57.8°F14.3°C 88% 1.2 mph SE1.9 kmh SE 3.5 mph5.6 kmh 29.98 in1015.2 mb - 0.00 in0.0 mm 0.00 in0.0 mm
10:00 AM 60.4°F15.8°C 56.9°F13.8°C 88% 2.3 mph ESE3.7 kmh ESE 2.3 mph3.7 kmh 29.97 in1014.9 mb - 0.00 in0.0 mm 0.00 in0.0 mm
09:55 AM 60.3°F15.7°C 56.7°F13.7°C 88% Calm Calm 3.5 mph5.6 kmh 29.97 in1014.9 mb - 0.00 in0.0 mm 0.00 in0.0 mm
09:50 AM 60.3°F15.7°C 56.7°F13.7°C 88% 1.2 mph SE1.9 kmh SE -- 29.97 in1014.9 mb - 0.00 in0.0 mm 0.00 in0.0 mm
09:45 AM 60.1°F15.6°C 56.5°F13.6°C 88% 2.3 mph WNW3.7 kmh WNW 3.5 mph5.6 kmh 29.98 in1015.2 mb - 0.00 in0.0 mm 0.00 in0.0 mm
09:40 AM 59.9°F15.5°C 56.3°F13.5°C 88% 3.5 mph N5.6 kmh N 2.3 mph3.7 kmh 29.98 in1015.2 mb - 0.00 in0.0 mm 0.00 in0.0 mm
09:35 AM 59.7°F15.4°C 56.2°F13.4°C 88% 3.5 mph N5.6 kmh N 3.5 mph5.6 kmh 29.97 in1014.9 mb - 0.00 in0.0 mm 0.00 in0.0 mm
09:30 AM 59.7°F15.4°C 56.2°F13.4°C 88% 3.5 mph N5.6 kmh N 3.5 mph5.6 kmh 29.98 in1015.2 mb - 0.00 in0.0 mm 0.00 in0.0 mm
09:25 AM 59.9°F15.5°C 56.3°F13.5°C 88% 2.3 mph N3.7 kmh N 3.5 mph5.6 kmh 29.97 in1014.9 mb - 0.00 in0.0 mm 0.00 in0.0 mm
09:20 AM 60.1°F15.6°C 56.5°F13.6°C 88% 2.3 mph WNW3.7 kmh WNW 3.5 mph5.6 kmh 29.98 in1015.2 mb - 0.00 in0.0 mm 0.00 in0.0 mm
09:15 AM 60.3°F15.7°C 56.7°F13.7°C 88% 3.5 mph WNW5.6 kmh WNW 3.5 mph5.6 kmh 29.98 in1015.2 mb - 0.00 in0.0 mm 0.00 in0.0 mm
09:10 AM 59.9°F15.5°C 56.3°F13.5°C 88% 1.2 mph N1.9 kmh N 3.5 mph5.6 kmh 29.97 in1014.9 mb - 0.00 in0.0 mm 0.00 in0.0 mm
09:00 AM 59.7°F15.4°C 56.2°F13.4°C 88% 2.3 mph NW3.7 kmh NW 3.5 mph5.6 kmh 29.97 in1014.9 mb - 0.00 in0.0 mm 0.00 in0.0 mm
08:55 AM 59.9°F15.5°C 56.3°F13.5°C 88% 2.3 mph NE3.7 kmh NE 3.5 mph5.6 kmh 29.98 in1015.2 mb - 0.00 in0.0 mm 0.00 in0.0 mm
08:50 AM 59.8°F15.4°C 56.2°F13.4°C 88% 2.3 mph W3.7 kmh W 3.5 mph5.6 kmh 29.96 in1014.6 mb - 0.00 in0.0 mm 0.00 in0.0 mm
08:45 AM 59.6°F15.3°C 56.1°F13.4°C 88% 2.3 mph N3.7 kmh N 3.5 mph5.6 kmh 29.95 in1014.2 mb - 0.00 in0.0 mm 0.00 in0.0 mm
08:40 AM 59.2°F15.1°C 55.6°F13.1°C 88% 2.3 mph N3.7 kmh N 3.5 mph5.6 kmh 29.95 in1014.2 mb - 0.00 in0.0 mm 0.00 in0.0 mm
08:35 AM 58.8°F14.9°C 55.3°F12.9°C 88% 2.3 mph NW3.7 kmh NW 3.5 mph5.6 kmh 29.95 in1014.2 mb - 0.00 in0.0 mm 0.00 in0.0 mm
08:30 AM 58.5°F14.7°C 54.9°F12.7°C 88% 2.3 mph NNE3.7 kmh NNE 3.5 mph5.6 kmh 29.95 in1014.2 mb - 0.00 in0.0 mm 0.00 in0.0 mm
08:25 AM 58.5°F14.7°C 54.9°F12.7°C 88% 2.3 mph N3.7 kmh N 3.5 mph5.6 kmh 29.95 in1014.2 mb - 0.00 in0.0 mm 0.00 in0.0 mm
08:20 AM 58.5°F14.7°C 55.0°F12.8°C 88% 3.5 mph NNW5.6 kmh NNW 3.5 mph5.6 kmh 29.97 in1014.9 mb - 0.00 in0.0 mm 0.00 in0.0 mm
08:15 AM 58.5°F14.7°C 55.5°F13.1°C 90% 3.5 mph NNE5.6 kmh NNE 2.3 mph3.7 kmh 29.95 in1014.2 mb - 0.00 in0.0 mm 0.00 in0.0 mm
08:10 AM 58.5°F14.7°C 55.5°F13.1°C 90% 2.3 mph NW3.7 kmh NW 3.5 mph5.6 kmh 29.96 in1014.6 mb - 0.00 in0.0 mm 0.00 in0.0 mm
08:00 AM 58.5°F14.7°C 55.5°F13.1°C 90% 2.3 mph NNW3.7 kmh NNW 3.5 mph5.6 kmh 29.97 in1014.9 mb - 0.00 in0.0 mm 0.00 in0.0 mm
07:55 AM 58.3°F14.6°C 55.4°F13.0°C 90% 3.5 mph W5.6 kmh W 5.8 mph9.3 kmh 29.96 in1014.6 mb - 0.00 in0.0 mm 0.00 in0.0 mm
07:50 AM 57.9°F14.4°C 55.3°F12.9°C 91% 2.3 mph NW3.7 kmh NW 3.5 mph5.6 kmh 29.96 in1014.6 mb - 0.00 in0.0 mm 0.00 in0.0 mm
07:45 AM 57.9°F14.4°C 55.3°F12.9°C 91% 3.5 mph NNE5.6 kmh NNE 3.5 mph5.6 kmh 29.95 in1014.2 mb - 0.00 in0.0 mm 0.00 in0.0 mm
07:40 AM 57.7°F14.3°C 55.1°F12.8°C 91% 2.3 mph NNE3.7 kmh NNE 2.3 mph3.7 kmh 29.95 in1014.2 mb - 0.00 in0.0 mm 0.00 in0.0 mm
07:35 AM 57.6°F14.2°C 55.0°F12.8°C 91% 2.3 mph NNE3.7 kmh NNE 2.3 mph3.7 kmh 29.96 in1014.6 mb - 0.00 in0.0 mm 0.00 in0.0 mm
07:30 AM 57.4°F14.1°C 54.8°F12.7°C 91% 1.2 mph NNW1.9 kmh NNW 2.3 mph3.7 kmh 29.95 in1014.2 mb - 0.00 in0.0 mm 0.00 in0.0 mm
07:25 AM 57.4°F14.1°C 54.8°F12.7°C 91% 2.3 mph NW3.7 kmh NW 2.3 mph3.7 kmh 29.96 in1014.6 mb - 0.00 in0.0 mm 0.00 in0.0 mm
07:20 AM 57.4°F14.1°C 54.8°F12.7°C 91% 2.3 mph N3.7 kmh N 4.6 mph7.4 kmh 29.95 in1014.2 mb - 0.00 in0.0 mm 0.00 in0.0 mm
07:15 AM 57.4°F14.1°C 54.8°F12.7°C 91% 2.3 mph N3.7 kmh N 3.5 mph5.6 kmh 29.95 in1014.2 mb - 0.00 in0.0 mm 0.00 in0.0 mm
07:10 AM 57.4°F14.1°C 54.8°F12.7°C 91% 1.2 mph N1.9 kmh N 3.5 mph5.6 kmh 29.95 in1014.2 mb - 0.00 in0.0 mm 0.00 in0.0 mm
07:00 AM 57.4°F14.1°C 54.8°F12.7°C 91% 2.3 mph NW3.7 kmh NW 3.5 mph5.6 kmh 29.95 in1014.2 mb - 0.00 in0.0 mm 0.00 in0.0 mm
06:55 AM 57.6°F14.2°C 55.0°F12.8°C 91% 3.5 mph WSW5.6 kmh WSW 3.5 mph5.6 kmh 29.95 in1014.2 mb - 0.00 in0.0 mm 0.00 in0.0 mm
06:50 AM 57.6°F14.2°C 55.0°F12.8°C 91% 2.3 mph N3.7 kmh N 2.3 mph3.7 kmh 29.94 in1013.9 mb - 0.00 in0.0 mm 0.00 in0.0 mm
06:45 AM 57.6°F14.2°C 55.0°F12.8°C 91% 3.5 mph WNW5.6 kmh WNW 2.3 mph3.7 kmh 29.95 in1014.2 mb - 0.00 in0.0 mm 0.00 in0.0 mm
06:40 AM 57.6°F14.2°C 55.0°F12.8°C 91% 2.3 mph W3.7 kmh W 3.5 mph5.6 kmh 29.94 in1013.9 mb - 0.00 in0.0 mm 0.00 in0.0 mm
06:35 AM 57.6°F14.2°C 55.6°F13.1°C 93% 2.3 mph NNW3.7 kmh NNW 4.6 mph7.4 kmh 29.93 in1013.5 mb - 0.00 in0.0 mm 0.00 in0.0 mm
06:30 AM 57.6°F14.2°C 55.6°F13.1°C 93% 2.3 mph NNW3.7 kmh NNW 4.6 mph7.4 kmh 29.93 in1013.5 mb - 0.00 in0.0 mm 0.00 in0.0 mm
06:25 AM 57.6°F14.2°C 55.6°F13.1°C 93% 1.2 mph NNW1.9 kmh NNW 2.3 mph3.7 kmh 29.94 in1013.9 mb - 0.00 in0.0 mm 0.00 in0.0 mm
06:20 AM 57.6°F14.2°C 55.6°F13.1°C 93% Calm Calm 2.3 mph3.7 kmh 29.94 in1013.9 mb - 0.00 in0.0 mm 0.00 in0.0 mm
06:15 AM 57.6°F14.2°C 55.6°F13.1°C 93% 1.2 mph NNE1.9 kmh NNE 2.3 mph3.7 kmh 29.94 in1013.9 mb - 0.00 in0.0 mm 0.00 in0.0 mm
06:10 AM 57.6°F14.2°C 55.6°F13.1°C 93% 1.2 mph NNE1.9 kmh NNE 2.3 mph3.7 kmh 29.93 in1013.5 mb - 0.00 in0.0 mm 0.00 in0.0 mm
06:00 AM 57.4°F14.1°C 55.4°F13.0°C 93% 1.2 mph NNE1.9 kmh NNE 1.2 mph1.9 kmh 29.94 in1013.9 mb - 0.00 in0.0 mm 0.00 in0.0 mm
05:55 AM 57.4°F14.1°C 55.4°F13.0°C 93% 1.2 mph NW1.9 kmh NW 2.3 mph3.7 kmh 29.95 in1014.2 mb - 0.00 in0.0 mm 0.00 in0.0 mm
05:50 AM 57.4°F14.1°C 55.4°F13.0°C 93% Calm Calm -- 29.94 in1013.9 mb - 0.00 in0.0 mm 0.00 in0.0 mm
05:45 AM 57.2°F14.0°C 55.2°F12.9°C 93% Calm Calm 1.2 mph1.9 kmh 29.94 in1013.9 mb - 0.00 in0.0 mm 0.00 in0.0 mm
05:40 AM 57.2°F14.0°C 55.2°F12.9°C 93% Calm Calm -- 29.94 in1013.9 mb - 0.00 in0.0 mm 0.00 in0.0 mm
05:35 AM 56.8°F13.8°C 54.8°F12.7°C 93% Calm Calm -- 29.94 in1013.9 mb - 0.00 in0.0 mm 0.00 in0.0 mm
05:30 AM 56.7°F13.7°C 54.7°F12.6°C 93% 1.2 mph NW1.9 kmh NW -- 29.95 in1014.2 mb - 0.00 in0.0 mm 0.00 in0.0 mm
05:25 AM 56.7°F13.7°C 54.7°F12.6°C 93% 1.2 mph WNW1.9 kmh WNW 1.2 mph1.9 kmh 29.95 in1014.2 mb - 0.00 in0.0 mm 0.00 in0.0 mm
05:20 AM 56.7°F13.7°C 54.7°F12.6°C 93% Calm Calm 2.3 mph3.7 kmh 29.94 in1013.9 mb - 0.00 in0.0 mm 0.00 in0.0 mm
05:15 AM 56.7°F13.7°C 54.7°F12.6°C 93% 1.2 mph E1.9 kmh E 2.3 mph3.7 kmh 29.94 in1013.9 mb - 0.00 in0.0 mm 0.00 in0.0 mm
05:10 AM 56.7°F13.7°C 54.7°F12.6°C 93% 1.2 mph NE1.9 kmh NE 2.3 mph3.7 kmh 29.95 in1014.2 mb - 0.00 in0.0 mm 0.00 in0.0 mm
05:00 AM 56.7°F13.7°C 54.7°F12.6°C 93% 1.2 mph SSE1.9 kmh SSE 2.3 mph3.7 kmh 29.95 in1014.2 mb - 0.00 in0.0 mm 0.00 in0.0 mm
04:55 AM 56.3°F13.5°C 54.3°F12.4°C 93% 1.2 mph WNW1.9 kmh WNW 1.2 mph1.9 kmh 29.96 in1014.6 mb - 0.00 in0.0 mm 0.00 in0.0 mm
04:50 AM 56.3°F13.5°C 54.3°F12.4°C 93% 1.2 mph N1.9 kmh N 1.2 mph1.9 kmh 29.95 in1014.2 mb - 0.00 in0.0 mm 0.00 in0.0 mm
04:45 AM 55.9°F13.3°C 53.9°F12.2°C 93% 1.2 mph W1.9 kmh W 1.2 mph1.9 kmh 29.95 in1014.2 mb - 0.00 in0.0 mm 0.00 in0.0 mm
04:40 AM 55.9°F13.3°C 53.9°F12.2°C 93% 1.2 mph WSW1.9 kmh WSW 1.2 mph1.9 kmh 29.94 in1013.9 mb - 0.00 in0.0 mm 0.00 in0.0 mm
04:35 AM 55.9°F13.3°C 53.9°F12.2°C 93% 1.2 mph NE1.9 kmh NE 1.2 mph1.9 kmh 29.93 in1013.5 mb - 0.00 in0.0 mm 0.00 in0.0 mm
04:30 AM 55.9°F13.3°C 53.9°F12.2°C 93% 1.2 mph NE1.9 kmh NE 2.3 mph3.7 kmh 29.93 in1013.5 mb - 0.00 in0.0 mm 0.00 in0.0 mm
04:25 AM 55.9°F13.3°C 53.9°F12.2°C 93% Calm Calm -- 29.93 in1013.5 mb - 0.00 in0.0 mm 0.00 in0.0 mm
04:20 AM 55.9°F13.3°C 53.9°F12.2°C 93% Calm Calm -- 29.93 in1013.5 mb - 0.00 in0.0 mm 0.00 in0.0 mm
04:15 AM 55.9°F13.3°C 53.9°F12.2°C 93% Calm Calm -- 29.93 in1013.5 mb - 0.00 in0.0 mm 0.00 in0.0 mm
04:10 AM 55.9°F13.3°C 53.9°F12.2°C 93% 1.2 mph ENE1.9 kmh ENE 2.3 mph3.7 kmh 29.93 in1013.5 mb - 0.00 in0.0 mm 0.00 in0.0 mm
04:00 AM 55.9°F13.3°C 53.9°F12.2°C 93% 1.2 mph SSE1.9 kmh SSE -- 29.92 in1013.2 mb - 0.00 in0.0 mm 0.00 in0.0 mm
03:55 AM 55.9°F13.3°C 53.9°F12.2°C 93% 2.3 mph NNE3.7 kmh NNE 2.3 mph3.7 kmh 29.93 in1013.5 mb - 0.00 in0.0 mm 0.00 in0.0 mm
03:50 AM 55.9°F13.3°C 54.2°F12.3°C 94% 1.2 mph WNW1.9 kmh WNW 2.3 mph3.7 kmh 29.92 in1013.2 mb - 0.00 in0.0 mm 0.00 in0.0 mm
03:45 AM 55.9°F13.3°C 54.5°F12.5°C 95% 1.2 mph ENE1.9 kmh ENE 3.5 mph5.6 kmh 29.92 in1013.2 mb - 0.00 in0.0 mm 0.00 in0.0 mm
03:40 AM 55.9°F13.3°C 54.5°F12.5°C 95% 1.2 mph SSE1.9 kmh SSE -- 29.92 in1013.2 mb - 0.00 in0.0 mm 0.00 in0.0 mm
03:35 AM 55.9°F13.3°C 54.5°F12.5°C 95% 1.2 mph ESE1.9 kmh ESE -- 29.93 in1013.5 mb - 0.00 in0.0 mm 0.00 in0.0 mm
03:30 AM 55.9°F13.3°C 54.5°F12.5°C 95% 1.2 mph NE1.9 kmh NE 3.5 mph5.6 kmh 29.93 in1013.5 mb - 0.00 in0.0 mm 0.00 in0.0 mm
03:25 AM 55.9°F13.3°C 54.5°F12.5°C 95% 2.3 mph E3.7 kmh E 2.3 mph3.7 kmh 29.93 in1013.5 mb - 0.00 in0.0 mm 0.00 in0.0 mm
03:20 AM 55.9°F13.3°C 54.5°F12.5°C 95% 1.2 mph 1.9 kmh 2.3 mph3.7 kmh 29.93 in1013.5 mb - 0.00 in0.0 mm 0.00 in0.0 mm
03:15 AM 56.5°F13.6°C 55.1°F12.8°C 95% 1.2 mph NNE1.9 kmh NNE -- 29.93 in1013.5 mb - 0.00 in0.0 mm 0.00 in0.0 mm
03:10 AM 56.5°F13.6°C 55.1°F12.8°C 95% 1.2 mph WSW1.9 kmh WSW 2.3 mph3.7 kmh 29.93 in1013.5 mb - 0.00 in0.0 mm 0.00 in0.0 mm
03:00 AM 56.7°F13.7°C 55.2°F12.9°C 95% 1.2 mph N1.9 kmh N 2.3 mph3.7 kmh 29.93 in1013.5 mb - 0.00 in0.0 mm 0.00 in0.0 mm
02:55 AM 56.7°F13.7°C 55.2°F12.9°C 95% 1.2 mph NNW1.9 kmh NNW 2.3 mph3.7 kmh 29.92 in1013.2 mb - 0.00 in0.0 mm 0.00 in0.0 mm
02:50 AM 56.7°F13.7°C 55.2°F12.9°C 95% 1.2 mph NE1.9 kmh NE 1.2 mph1.9 kmh 29.92 in1013.2 mb - 0.00 in0.0 mm 0.00 in0.0 mm
02:45 AM 56.7°F13.7°C 55.2°F12.9°C 95% 2.3 mph NNE3.7 kmh NNE 3.5 mph5.6 kmh 29.92 in1013.2 mb - 0.00 in0.0 mm 0.00 in0.0 mm
02:40 AM 56.7°F13.7°C 55.2°F12.9°C 95% 2.3 mph NE3.7 kmh NE 3.5 mph5.6 kmh 29.93 in1013.5 mb - 0.00 in0.0 mm 0.00 in0.0 mm
02:35 AM 56.8°F13.8°C 55.4°F13.0°C 95% 1.2 mph NE1.9 kmh NE 2.3 mph3.7 kmh 29.92 in1013.2 mb - 0.00 in0.0 mm 0.00 in0.0 mm
02:30 AM 57.0°F13.9°C 55.6°F13.1°C 95% 1.2 mph NNE1.9 kmh NNE 3.5 mph5.6 kmh 29.92 in1013.2 mb - 0.00 in0.0 mm 0.00 in0.0 mm
02:25 AM 57.2°F14.0°C 55.8°F13.2°C 95% 1.2 mph NE1.9 kmh NE 1.2 mph1.9 kmh 29.93 in1013.5 mb - 0.00 in0.0 mm 0.00 in0.0 mm
02:20 AM 57.4°F14.1°C 56.0°F13.3°C 95% 1.2 mph E1.9 kmh E -- 29.93 in1013.5 mb - 0.00 in0.0 mm 0.00 in0.0 mm
02:15 AM 57.4°F14.1°C 56.0°F13.3°C 95% 1.2 mph NW1.9 kmh NW 3.5 mph5.6 kmh 29.93 in1013.5 mb - 0.00 in0.0 mm 0.00 in0.0 mm
02:10 AM 57.6°F14.2°C 56.1°F13.4°C 95% 1.2 mph E1.9 kmh E 1.2 mph1.9 kmh 29.93 in1013.5 mb - 0.00 in0.0 mm 0.00 in0.0 mm
02:00 AM 57.6°F14.2°C 55.6°F13.1°C 93% 1.2 mph N1.9 kmh N 2.3 mph3.7 kmh 29.93 in1013.5 mb - 0.00 in0.0 mm 0.00 in0.0 mm
01:55 AM 57.7°F14.3°C 55.7°F13.2°C 93% 2.3 mph N3.7 kmh N 2.3 mph3.7 kmh 29.92 in1013.2 mb - 0.00 in0.0 mm 0.00 in0.0 mm
01:50 AM 57.7°F14.3°C 55.7°F13.2°C 93% 2.3 mph N3.7 kmh N 2.3 mph3.7 kmh 29.91 in1012.9 mb - 0.00 in0.0 mm 0.00 in0.0 mm
01:45 AM 57.7°F14.3°C 55.7°F13.2°C 93% 2.3 mph N3.7 kmh N 2.3 mph3.7 kmh 29.92 in1013.2 mb - 0.00 in0.0 mm 0.00 in0.0 mm
01:40 AM 58.3°F14.6°C 56.3°F13.5°C 93% 1.2 mph N1.9 kmh N 2.3 mph3.7 kmh 29.92 in1013.2 mb - 0.00 in0.0 mm 0.00 in0.0 mm
01:35 AM 58.3°F14.6°C 56.3°F13.5°C 93% 1.2 mph E1.9 kmh E 2.3 mph3.7 kmh 29.92 in1013.2 mb - 0.00 in0.0 mm 0.00 in0.0 mm
01:30 AM 58.5°F14.7°C 56.4°F13.6°C 93% 1.2 mph ENE1.9 kmh ENE 1.2 mph1.9 kmh 29.93 in1013.5 mb - 0.00 in0.0 mm 0.00 in0.0 mm
01:25 AM 58.5°F14.7°C 56.4°F13.6°C 93% 1.2 mph W1.9 kmh W 3.5 mph5.6 kmh 29.93 in1013.5 mb - 0.00 in0.0 mm 0.00 in0.0 mm
01:20 AM 58.5°F14.7°C 56.4°F13.6°C 93% 2.3 mph NNE3.7 kmh NNE 3.5 mph5.6 kmh 29.92 in1013.2 mb - 0.00 in0.0 mm 0.00 in0.0 mm
01:15 AM 58.8°F14.9°C 56.8°F13.8°C 93% 2.3 mph S3.7 kmh S 3.5 mph5.6 kmh 29.92 in1013.2 mb - 0.00 in0.0 mm 0.00 in0.0 mm
01:10 AM 59.1°F15.1°C 57.1°F13.9°C 93% 2.3 mph SSE3.7 kmh SSE 3.5 mph5.6 kmh 29.92 in1013.2 mb - 0.00 in0.0 mm 0.00 in0.0 mm
01:00 AM 59.4°F15.2°C 57.3°F14.1°C 93% 2.3 mph SSE3.7 kmh SSE 1.2 mph1.9 kmh 29.92 in1013.2 mb - 0.00 in0.0 mm 0.00 in0.0 mm
12:55 AM 59.7°F15.4°C 57.7°F14.3°C 93% 1.2 mph E1.9 kmh E 2.3 mph3.7 kmh 29.92 in1013.2 mb - 0.00 in0.0 mm 0.00 in0.0 mm
12:50 AM 59.7°F15.4°C 57.7°F14.3°C 93% 2.3 mph NNE3.7 kmh NNE 3.5 mph5.6 kmh 29.92 in1013.2 mb - 0.00 in0.0 mm 0.00 in0.0 mm
12:45 AM 59.9°F15.5°C 57.9°F14.4°C 93% 1.2 mph N1.9 kmh N 3.5 mph5.6 kmh 29.92 in1013.2 mb - 0.00 in0.0 mm 0.00 in0.0 mm
12:40 AM 59.9°F15.5°C 57.9°F14.4°C 93% 1.2 mph WNW1.9 kmh WNW 1.2 mph1.9 kmh 29.92 in1013.2 mb - 0.00 in0.0 mm 0.00 in0.0 mm
12:35 AM 60.1°F15.6°C 58.0°F14.4°C 93% 2.3 mph 3.7 kmh 3.5 mph5.6 kmh 29.92 in1013.2 mb - 0.00 in0.0 mm 0.00 in0.0 mm
12:30 AM 60.1°F15.6°C 58.0°F14.4°C 93% 1.2 mph ESE1.9 kmh ESE 3.5 mph5.6 kmh 29.91 in1012.9 mb - 0.00 in0.0 mm 0.00 in0.0 mm
12:25 AM 60.1°F15.6°C 58.0°F14.4°C 93% 2.3 mph E3.7 kmh E 2.3 mph3.7 kmh 29.92 in1013.2 mb - 0.00 in0.0 mm 0.00 in0.0 mm
12:20 AM 60.3°F15.7°C 58.2°F14.6°C 93% 2.3 mph NNE3.7 kmh NNE 4.6 mph7.4 kmh 29.91 in1012.9 mb - 0.00 in0.0 mm 0.00 in0.0 mm
12:15 AM 60.3°F15.7°C 58.2°F14.6°C 93% 3.5 mph NW5.6 kmh NW 3.5 mph5.6 kmh 29.91 in1012.9 mb - 0.00 in0.0 mm 0.00 in0.0 mm
12:10 AM 60.4°F15.8°C 58.4°F14.7°C 93% 2.3 mph NNW3.7 kmh NNW 2.3 mph3.7 kmh 29.91 in1012.9 mb - 0.00 in0.0 mm 0.00 in0.0 mm
12:00 AM 60.7°F15.9°C 58.7°F14.8°C 93% 2.3 mph 3.7 kmh 3.5 mph5.6 kmh 29.91 in1012.9 mb - 0.00 in0.0 mm 0.00 in0.0 mm